Time;durP1;ratioP1;P1;durP2;ratioP2;P2;SDS_P1;SDS_P2;PMS_P1;PMS_P2;Temp;Humidity;BMP_temperature;BMP_pressure;BME280_temperature;BME280_humidity;BME280_pressure;Samples;Min_cycle;Max_cycle;Signal;HPM_P1;HPM_P2
2022/11/24 00:01:39;;;;;;;16.30;3.00;;;9.90;98.40;;;;;;4998386;28;20202;-80
2022/11/24 00:04:05;;;;;;;12.53;3.53;;;9.70;98.40;;;;;;4981163;28;20163;-80
2022/11/24 00:06:33;;;;;;;14.90;4.23;;;9.90;98.20;;;;;;4979521;28;20174;-80
2022/11/24 00:08:59;;;;;;;12.63;3.60;;;9.90;98.30;;;;;;4978929;28;20651;-81
2022/11/24 00:11:31;;;;;;;13.13;4.50;;;9.90;98.20;;;;;;4962619;28;20233;-81
2022/11/24 00:13:58;;;;;;;14.90;3.67;;;9.90;98.50;;;;;;4978115;28;20206;-81
2022/11/24 00:16:28;;;;;;;18.20;4.43;;;9.90;98.40;;;;;;4977661;28;20218;-81
2022/11/24 00:18:56;;;;;;;15.07;4.00;;;10.00;98.60;;;;;;5002860;28;20171;-81
2022/11/24 00:21:22;;;;;;;19.47;4.23;;;9.90;98.40;;;;;;5003930;28;20206;-80
2022/11/24 00:23:49;;;;;;;15.80;4.37;;;10.10;98.10;;;;;;4983467;28;20171;-80
2022/11/24 00:26:19;;;;;;;16.93;4.17;;;10.00;97.90;;;;;;4989030;28;20183;-79
2022/11/24 00:28:47;;;;;;;14.07;3.83;;;10.00;98.00;;;;;;4995579;28;20202;-79
2022/11/24 00:31:17;;;;;;;22.17;4.17;;;10.00;97.30;;;;;;4993385;28;20203;-80
2022/11/24 00:33:42;;;;;;;14.27;3.90;;;10.00;97.50;;;;;;4991009;28;20170;-79
2022/11/24 00:36:09;;;;;;;14.63;4.70;;;10.00;97.50;;;;;;4997268;28;20598;-82
2022/11/24 00:38:44;;;;;;;17.17;4.53;;;10.00;97.70;;;;;;4994375;28;20186;-81
2022/11/24 00:41:13;;;;;;;13.40;3.57;;;10.20;98.10;;;;;;4994642;28;20214;-81
2022/11/24 00:43:39;;;;;;;19.70;4.27;;;10.00;97.70;;;;;;4976547;28;20253;-81
2022/11/24 00:46:05;;;;;;;16.40;4.53;;;10.10;98.20;;;;;;4993774;28;20218;-82
2022/11/24 00:48:31;;;;;;;15.97;4.13;;;10.00;98.10;;;;;;4993927;28;20167;-82
2022/11/24 00:50:59;;;;;;;13.83;3.57;;;10.10;97.40;;;;;;4976403;28;20182;-80
2022/11/24 00:53:25;;;;;;;12.60;4.13;;;10.10;97.80;;;;;;4976598;28;20277;-81
2022/11/24 00:55:52;;;;;;;14.80;4.30;;;10.10;98.10;;;;;;4994132;28;20765;-81
2022/11/24 00:58:17;;;;;;;16.97;4.17;;;10.10;98.00;;;;;;4976727;28;20525;-81
2022/11/24 01:00:43;;;;;;;19.43;4.10;;;10.10;98.00;;;;;;4994277;28;20218;-80
2022/11/24 01:03:09;;;;;;;18.57;4.80;;;10.10;98.20;;;;;;4977312;28;20230;-80
2022/11/24 01:05:35;;;;;;;18.50;4.90;;;10.10;98.20;;;;;;4977813;28;20174;-80
2022/11/24 01:08:01;;;;;;;16.47;4.80;;;10.10;98.80;;;;;;4981365;28;20178;-79
2022/11/24 01:10:28;;;;;;;22.60;4.63;;;10.10;98.90;;;;;;5001722;28;20198;-78
2022/11/24 01:13:03;;;;;;;14.87;4.20;;;10.00;99.20;;;;;;4988159;28;20662;-80
2022/11/24 01:15:29;;;;;;;15.33;4.13;;;10.10;98.70;;;;;;4980531;28;20619;-81
2022/11/24 01:17:55;;;;;;;16.30;4.77;;;10.20;97.90;;;;;;4977201;28;20194;-82
2022/11/24 01:20:21;;;;;;;14.13;4.40;;;10.10;98.10;;;;;;4994972;28;20202;-81
2022/11/24 01:22:48;;;;;;;18.50;4.37;;;10.20;98.30;;;;;;4993655;28;20258;-80
2022/11/24 01:25:14;;;;;;;16.10;4.33;;;10.10;98.50;;;;;;4977260;28;20238;-81
2022/11/24 01:27:46;;;;;;;14.27;4.40;;;10.00;98.90;;;;;;4994082;28;20727;-81
2022/11/24 01:30:11;;;;;;;18.23;4.77;;;10.00;99.00;;;;;;4993491;28;20179;-81
2022/11/24 01:32:37;;;;;;;18.33;4.23;;;10.00;99.30;;;;;;4993281;28;20315;-80
2022/11/24 01:35:04;;;;;;;17.67;4.87;;;10.00;99.30;;;;;;4994010;28;20568;-80
2022/11/24 01:37:30;;;;;;;20.80;5.50;;;10.00;99.90;;;;;;4994774;28;20178;-80
2022/11/24 01:39:55;;;;;;;17.53;4.60;;;10.00;99.70;;;;;;4976093;28;20203;-81
2022/11/24 01:42:21;;;;;;;17.47;5.03;;;10.00;99.70;;;;;;4993704;28;20238;-80
2022/11/24 01:44:50;;;;;;;15.53;5.93;;;10.00;99.70;;;;;;4993384;28;20177;-78
2022/11/24 01:47:30;;;;;;;21.83;5.87;;;10.20;98.50;;;;;;4975661;28;20183;-80
2022/11/24 01:49:58;;;;;;;23.77;4.73;;;10.10;98.60;;;;;;4975680;28;20210;-80
2022/11/24 01:52:39;;;;;;;19.73;5.90;;;10.10;99.40;;;;;;4976184;28;20593;-80
2022/11/24 01:55:14;;;;;;;17.37;4.83;;;10.00;99.60;;;;;;4975784;28;20197;-80
2022/11/24 01:58:03;;;;;;;18.47;5.10;;;10.20;99.60;;;;;;4979335;28;20657;-81
2022/11/24 02:00:28;;;;;;;18.80;5.53;;;10.20;99.90;;;;;;4971706;28;20310;-81
2022/11/24 02:02:56;;;;;;;17.60;5.23;;;10.30;97.40;;;;;;4981008;28;20218;-82
2022/11/24 02:05:26;;;;;;;19.17;5.10;;;10.30;97.70;;;;;;5000668;28;20181;-80
2022/11/24 02:07:54;;;;;;;20.23;5.00;;;10.20;97.70;;;;;;5002783;28;20254;-80
2022/11/24 02:10:20;;;;;;;26.37;5.43;;;10.30;98.50;;;;;;4983592;28;20178;-81
2022/11/24 02:12:49;;;;;;;22.30;4.93;;;10.10;98.80;;;;;;5000996;28;20186;-82
2022/11/24 02:15:17;;;;;;;22.10;5.40;;;10.20;98.30;;;;;;4997245;28;20210;-82
2022/11/24 02:17:43;;;;;;;20.37;4.77;;;10.20;98.50;;;;;;4979039;28;20175;-82
2022/11/24 02:20:10;;;;;;;18.37;4.60;;;10.20;97.90;;;;;;4996001;28;20195;-80
2022/11/24 02:22:46;;;;;;;19.13;4.83;;;10.20;98.40;;;;;;4996308;28;20179;-81
2022/11/24 02:25:31;;;;;;;17.57;4.47;;;10.30;98.40;;;;;;4978876;28;20253;-82
2022/11/24 02:27:59;;;;;;;18.63;5.03;;;10.40;96.70;;;;;;4978623;28;20224;-82
2022/11/24 02:30:25;;;;;;;21.60;4.53;;;10.50;95.80;;;;;;4995561;28;20175;-81
2022/11/24 02:32:51;;;;;;;15.47;4.23;;;10.60;95.80;;;;;;4996252;28;20194;-80
2022/11/24 02:35:18;;;;;;;21.43;5.53;;;10.70;95.30;;;;;;4996391;28;20178;-81
2022/11/24 02:37:43;;;;;;;22.37;5.70;;;10.50;95.70;;;;;;4996297;28;20254;-80
2022/11/24 02:40:12;;;;;;;18.20;4.63;;;10.70;94.40;;;;;;4977803;28;20388;-80
2022/11/24 02:42:45;;;;;;;16.73;5.40;;;10.70;94.00;;;;;;4996304;28;20175;-79
2022/11/24 02:45:12;;;;;;;15.70;4.97;;;10.70;93.00;;;;;;4978571;28;20255;-81
2022/11/24 02:47:38;;;;;;;17.73;5.23;;;10.70;93.80;;;;;;4980023;28;20215;-81
2022/11/24 02:50:05;;;;;;;20.60;4.83;;;10.70;94.00;;;;;;4996504;28;20171;-81
2022/11/24 02:52:31;;;;;;;20.50;4.67;;;10.60;94.60;;;;;;4978792;28;20198;-80
2022/11/24 02:54:56;;;;;;;22.67;5.57;;;10.60;95.20;;;;;;4997008;28;20559;-81
2022/11/24 02:57:22;;;;;;;17.07;4.40;;;10.60;96.00;;;;;;4997043;28;20175;-81
2022/11/24 02:59:48;;;;;;;19.17;4.97;;;10.60;96.50;;;;;;5016180;28;20170;-81
2022/11/24 03:02:14;;;;;;;19.00;4.97;;;10.50;96.30;;;;;;5017818;28;20211;-80
2022/11/24 03:04:39;;;;;;;18.23;4.67;;;10.60;95.50;;;;;;5016545;28;20203;-79
2022/11/24 03:07:05;;;;;;;18.87;4.67;;;10.90;94.20;;;;;;4985926;28;20171;-79
2022/11/24 03:09:33;;;;;;;18.03;4.23;;;10.60;94.30;;;;;;4996931;28;20569;-80
2022/11/24 03:12:04;;;;;;;30.93;5.57;;;10.60;94.60;;;;;;4995919;28;20588;-80
2022/11/24 03:14:30;;;;;;;17.27;4.30;;;10.50;95.50;;;;;;4978096;28;20270;-80
2022/11/24 03:16:57;;;;;;;17.83;4.93;;;10.60;96.20;;;;;;4995613;28;20250;-79
2022/11/24 03:19:22;;;;;;;17.17;3.93;;;10.50;96.20;;;;;;4982125;28;20222;-80
2022/11/24 03:21:48;;;;;;;15.67;4.63;;;10.50;96.80;;;;;;5000400;28;20219;-81
2022/11/24 03:24:14;;;;;;;16.43;3.97;;;10.40;97.10;;;;;;5018894;28;20155;-79
2022/11/24 03:26:40;;;;;;;15.37;4.23;;;10.30;97.00;;;;;;5019190;28;20599;-79
2022/11/24 03:29:07;;;;;;;13.63;4.03;;;10.30;97.50;;;;;;4981094;28;20190;-81
2022/11/24 03:31:33;;;;;;;15.00;3.77;;;10.40;97.30;;;;;;4996785;28;20635;-80
2022/11/24 03:34:01;;;;;;;12.83;3.60;;;10.30;97.00;;;;;;4995597;28;20159;-82
2022/11/24 03:36:27;;;;;;;12.47;3.07;;;10.30;97.40;;;;;;4978179;28;20183;-82
2022/11/24 03:38:54;;;;;;;11.33;2.50;;;10.20;96.80;;;;;;4996229;28;20570;-79
2022/11/24 03:41:20;;;;;;;10.20;2.83;;;10.20;95.30;;;;;;4981405;28;20226;-80
2022/11/24 03:43:46;;;;;;;8.90;2.70;;;10.20;91.90;;;;;;4993814;28;20175;-83
2022/11/24 03:46:12;;;;;;;10.40;2.77;;;10.20;92.20;;;;;;4994020;28;20171;-83
2022/11/24 03:48:37;;;;;;;9.90;2.40;;;10.10;91.70;;;;;;4997576;28;20171;-81
2022/11/24 03:51:03;;;;;;;8.03;2.20;;;10.10;91.10;;;;;;4979771;28;20717;-81
2022/11/24 03:53:30;;;;;;;7.07;1.90;;;10.00;91.20;;;;;;4979245;28;20180;-83
2022/11/24 03:55:57;;;;;;;8.90;2.47;;;10.10;91.30;;;;;;4981155;28;20175;-81
2022/11/24 03:58:23;;;;;;;8.43;2.13;;;10.10;88.90;;;;;;4982470;28;20183;-81
2022/11/24 04:00:51;;;;;;;8.07;2.17;;;10.10;88.10;;;;;;4980945;28;20616;-82
2022/11/24 04:03:18;;;;;;;7.83;1.77;;;10.00;87.40;;;;;;4998403;28;20175;-80
2022/11/24 04:05:44;;;;;;;6.83;1.93;;;10.00;87.90;;;;;;4982192;28;20183;-80
2022/11/24 04:08:11;;;;;;;6.63;2.00;;;10.00;90.00;;;;;;5004288;28;20239;-79
2022/11/24 04:10:38;;;;;;;8.33;2.20;;;10.00;90.70;;;;;;5017962;28;20189;-81
2022/11/24 04:13:10;;;;;;;9.67;1.80;;;10.00;92.00;;;;;;5017978;28;20163;-79
2022/11/24 04:15:40;;;;;;;5.33;1.97;;;9.80;92.00;;;;;;4992998;28;20179;-79
2022/11/24 04:18:24;;;;;;;7.17;1.90;;;9.80;92.90;;;;;;4986619;28;20262;-80
2022/11/24 04:20:59;;;;;;;6.20;1.60;;;9.80;93.40;;;;;;4997881;28;20709;-80
2022/11/24 04:23:26;;;;;;;5.93;1.53;;;10.00;91.80;;;;;;4996858;28;20169;-80
2022/11/24 04:25:52;;;;;;;8.00;1.90;;;9.90;91.60;;;;;;4979074;28;20731;-80
2022/11/24 04:28:18;;;;;;;2.63;1.00;;;9.90;92.40;;;;;;4996506;28;20262;-82
2022/11/24 04:30:43;;;;;;;7.17;1.53;;;9.70;93.60;;;;;;4978427;28;20234;-82
2022/11/24 04:33:09;;;;;;;5.93;1.63;;;9.70;93.30;;;;;;4996479;28;20679;-82
2022/11/24 04:35:35;;;;;;;6.73;1.63;;;9.70;93.70;;;;;;4978854;28;20181;-80
2022/11/24 04:38:02;;;;;;;3.20;1.00;;;9.60;94.20;;;;;;4997139;28;20664;-79
2022/11/24 04:40:28;;;;;;;5.17;1.50;;;9.60;95.40;;;;;;4998211;28;20325;-81
2022/11/24 04:42:54;;;;;;;4.23;1.30;;;9.70;96.00;;;;;;4979035;28;20210;-78
2022/11/24 04:45:21;;;;;;;5.10;1.07;;;9.50;96.50;;;;;;4980395;28;20183;-79
2022/11/24 04:47:47;;;;;;;5.40;1.30;;;9.50;95.90;;;;;;4999239;28;20207;-80
2022/11/24 04:50:15;;;;;;;5.03;1.37;;;9.50;96.10;;;;;;4996774;28;20163;-79
2022/11/24 04:52:42;;;;;;;4.00;1.37;;;9.50;96.50;;;;;;4977919;28;20182;-80
2022/11/24 04:55:08;;;;;;;4.80;1.20;;;9.40;96.30;;;;;;4979495;28;20175;-81
2022/11/24 04:57:33;;;;;;;4.03;1.10;;;9.40;97.30;;;;;;4978900;28;20259;-81
2022/11/24 04:59:59;;;;;;;2.60;0.87;;;9.30;97.60;;;;;;4997518;28;20262;-80
2022/11/24 05:02:25;;;;;;;4.33;1.10;;;9.30;98.10;;;;;;4978460;28;20186;-81
2022/11/24 05:04:50;;;;;;;3.73;1.30;;;9.40;96.70;;;;;;4979692;28;20171;-81
2022/11/24 05:07:17;;;;;;;4.63;1.30;;;9.40;96.50;;;;;;4994275;28;20639;-81
2022/11/24 05:12:30;;;;;;;6.97;1.20;;;9.40;97.00;;;;;;4996085;28;20654;-80
2022/11/24 05:14:57;;;;;;;2.67;1.10;;;9.50;96.30;;;;;;4977896;28;20600;-81
2022/11/24 05:17:23;;;;;;;4.57;1.50;;;9.30;96.30;;;;;;4995460;28;20163;-82
2022/11/24 05:19:48;;;;;;;6.27;1.47;;;9.20;97.50;;;;;;4977109;28;20190;-82
2022/11/24 05:22:14;;;;;;;3.33;1.33;;;9.30;97.20;;;;;;4995644;28;20663;-81
2022/11/24 05:24:39;;;;;;;4.47;1.00;;;9.20;97.80;;;;;;5008250;28;20159;-80
2022/11/24 05:27:05;;;;;;;6.40;1.47;;;9.20;97.90;;;;;;4998801;28;20190;-79
2022/11/24 05:29:32;;;;;;;4.27;1.50;;;9.20;99.00;;;;;;4999780;28;20171;-80
2022/11/24 05:32:01;;;;;;;5.20;1.30;;;9.20;98.70;;;;;;4989727;28;20191;-81
2022/11/24 05:34:32;;;;;;;6.50;1.70;;;9.30;98.70;;;;;;5001014;28;20186;-81
2022/11/24 05:37:01;;;;;;;4.13;1.40;;;9.10;98.70;;;;;;4997769;28;20173;-80
2022/11/24 05:39:31;;;;;;;5.13;1.60;;;9.20;99.20;;;;;;4997379;28;20670;-80
2022/11/24 05:41:57;;;;;;;5.83;2.20;;;9.10;99.90;;;;;;4997669;28;20418;-80
2022/11/24 05:44:23;;;;;;;8.67;2.17;;;9.10;99.90;;;;;;4980723;28;20581;-81
2022/11/24 05:46:48;;;;;;;6.57;2.00;;;9.30;99.90;;;;;;5001775;28;20179;-80
2022/11/24 05:49:14;;;;;;;4.60;1.60;;;9.20;99.90;;;;;;5006754;28;20230;-81
2022/11/24 05:51:40;;;;;;;6.70;1.70;;;9.20;99.90;;;;;;5004383;28;20206;-81
2022/11/24 05:54:05;;;;;;;7.07;2.03;;;9.20;99.90;;;;;;4980338;28;20183;-82
2022/11/24 05:56:31;;;;;;;9.27;2.10;;;9.10;99.90;;;;;;4997109;28;20194;-81
2022/11/24 05:58:56;;;;;;;7.23;2.03;;;9.20;99.90;;;;;;4979668;28;20215;-79
2022/11/24 06:01:22;;;;;;;9.00;2.63;;;9.20;99.90;;;;;;4979309;28;20207;-81
2022/11/24 06:03:48;;;;;;;9.07;2.50;;;9.20;99.90;;;;;;4996867;28;20701;-81
2022/11/24 06:06:14;;;;;;;9.77;2.50;;;9.20;99.90;;;;;;4996753;28;20175;-80
2022/11/24 06:08:40;;;;;;;10.10;2.47;;;9.30;99.90;;;;;;5000640;28;20241;-82
2022/11/24 06:11:17;;;;;;;9.03;2.60;;;9.10;99.90;;;;;;4985808;28;20183;-80
2022/11/24 06:13:44;;;;;;;12.00;2.53;;;9.10;99.90;;;;;;4998985;28;20198;-82
2022/11/24 06:16:10;;;;;;;10.83;2.80;;;9.10;99.90;;;;;;4997496;28;20238;-81
2022/11/24 06:18:37;;;;;;;10.53;2.57;;;9.10;99.90;;;;;;5005844;28;20171;-80
2022/11/24 06:21:04;;;;;;;10.37;3.10;;;9.00;99.90;;;;;;4986013;28;20203;-83
2022/11/24 06:23:30;;;;;;;10.33;3.03;;;9.00;99.90;;;;;;4982955;28;20170;-81
2022/11/24 06:25:58;;;;;;;12.53;2.97;;;8.90;99.90;;;;;;4992785;28;20170;-80
2022/11/24 06:28:25;;;;;;;13.13;3.27;;;8.90;99.90;;;;;;5015639;28;20183;-81
2022/11/24 06:30:54;;;;;;;10.43;2.67;;;8.90;99.90;;;;;;4980040;28;20675;-81
2022/11/24 06:33:22;;;;;;;11.10;3.03;;;8.90;99.90;;;;;;4979700;28;20175;-82
2022/11/24 06:35:49;;;;;;;14.70;3.63;;;8.90;99.90;;;;;;4996882;28;20177;-81
2022/11/24 06:38:16;;;;;;;13.33;3.10;;;8.90;99.90;;;;;;4996210;28;20190;-81
2022/11/24 06:40:43;;;;;;;11.63;2.33;;;9.10;99.90;;;;;;4979221;28;20222;-83
2022/11/24 06:43:10;;;;;;;15.60;3.17;;;9.00;99.90;;;;;;4996555;28;20166;-83
2022/11/24 06:45:35;;;;;;;14.53;3.30;;;9.00;99.90;;;;;;4979106;28;20186;-82
2022/11/24 06:48:01;;;;;;;8.70;2.80;;;8.90;99.90;;;;;;4978867;28;20175;-82
2022/11/24 06:50:27;;;;;;;12.83;3.17;;;9.00;99.90;;;;;;4979188;28;20663;-81
2022/11/24 06:52:53;;;;;;;14.97;3.40;;;8.90;99.90;;;;;;4996049;28;20253;-83
2022/11/24 06:55:19;;;;;;;10.83;3.07;;;8.90;99.90;;;;;;4996753;28;20175;-82
2022/11/24 06:57:45;;;;;;;12.17;3.20;;;9.10;99.90;;;;;;4997576;28;20293;-81
2022/11/24 07:00:11;;;;;;;11.10;3.07;;;8.90;99.90;;;;;;5000879;28;20653;-84
2022/11/24 07:02:37;;;;;;;14.40;3.77;;;8.70;99.90;;;;;;5001793;28;20185;-81
2022/11/24 07:05:03;;;;;;;9.87;2.80;;;8.80;99.90;;;;;;5020035;28;20155;-80
2022/11/24 07:07:29;;;;;;;11.93;3.13;;;8.70;99.90;;;;;;5001621;28;20185;-79
2022/11/24 07:09:55;;;;;;;7.13;2.50;;;8.70;99.90;;;;;;5017203;28;20193;-80
2022/11/24 07:12:20;;;;;;;8.30;2.77;;;8.70;99.90;;;;;;5018120;28;20174;-81
2022/11/24 07:14:46;;;;;;;10.33;2.90;;;8.80;99.90;;;;;;5000332;28;20174;-80
2022/11/24 07:17:12;;;;;;;13.07;3.57;;;8.80;99.90;;;;;;5001649;28;20178;-79
2022/11/24 07:19:37;;;;;;;7.60;2.23;;;8.70;99.90;;;;;;5000915;28;20178;-82
2022/11/24 07:22:04;;;;;;;7.50;2.33;;;8.70;99.90;;;;;;5020549;28;20557;-80
2022/11/24 07:24:36;;;;;;;9.10;2.53;;;8.60;99.90;;;;;;5023919;28;20250;-79
2022/11/24 07:27:09;;;;;;;10.40;2.63;;;8.60;99.90;;;;;;5016080;28;20171;-81
2022/11/24 07:29:34;;;;;;;9.10;2.60;;;8.70;99.90;;;;;;5023189;28;20242;-82
2022/11/24 07:32:00;;;;;;;9.33;2.17;;;8.60;99.90;;;;;;5019722;28;20212;-80
2022/11/24 07:34:26;;;;;;;10.83;3.30;;;8.80;99.90;;;;;;5019395;28;20166;-80
2022/11/24 07:36:52;;;;;;;17.97;3.90;;;8.60;99.90;;;;;;5005860;28;20174;-79
2022/11/24 07:39:18;;;;;;;12.40;2.40;;;8.50;99.90;;;;;;5000754;28;20186;-80
2022/11/24 07:41:43;;;;;;;12.10;2.87;;;8.50;99.90;;;;;;4999959;28;20214;-77
2022/11/24 07:44:11;;;;;;;11.00;2.80;;;8.50;99.90;;;;;;5017902;28;20206;-79
2022/11/24 07:46:37;;;;;;;8.73;2.50;;;8.60;99.90;;;;;;5000041;28;20669;-81
2022/11/24 07:49:03;;;;;;;9.37;2.20;;;8.60;99.90;;;;;;5016323;28;20170;-79
2022/11/24 07:51:30;;;;;;;11.00;2.73;;;8.50;99.90;;;;;;5017270;28;20181;-80
2022/11/24 07:53:56;;;;;;;9.50;2.80;;;8.60;99.90;;;;;;4999228;28;20201;-79
2022/11/24 07:56:21;;;;;;;13.50;2.93;;;8.60;99.90;;;;;;5014568;28;20171;-80
2022/11/24 07:58:48;;;;;;;7.33;2.83;;;8.70;99.90;;;;;;5018052;28;20194;-78
2022/11/24 08:01:16;;;;;;;8.47;2.23;;;8.60;99.90;;;;;;5015985;28;20260;-78
2022/11/24 08:03:43;;;;;;;10.17;3.00;;;8.80;99.90;;;;;;5016520;28;20167;-80
2022/11/24 08:06:09;;;;;;;13.07;2.73;;;8.80;99.90;;;;;;5016549;28;20174;-79
2022/11/24 08:08:36;;;;;;;10.97;2.50;;;8.70;99.90;;;;;;5017754;28;20181;-79
2022/11/24 08:11:11;;;;;;;10.37;2.77;;;8.80;99.90;;;;;;5002105;28;20182;-80
2022/11/24 08:13:39;;;;;;;12.63;2.63;;;8.80;99.90;;;;;;5000322;28;20170;-79
2022/11/24 08:16:12;;;;;;;8.67;2.17;;;8.90;99.90;;;;;;5017028;28;20167;-79
2022/11/24 08:18:38;;;;;;;7.30;2.10;;;9.00;99.90;;;;;;5016438;28;20701;-79
2022/11/24 08:21:06;;;;;;;8.67;2.77;;;8.80;99.90;;;;;;5017017;28;20293;-79
2022/11/24 08:23:32;;;;;;;8.30;2.60;;;8.80;99.90;;;;;;4997810;28;20177;-81
2022/11/24 08:26:08;;;;;;;7.80;2.50;;;9.00;99.90;;;;;;5019234;28;20555;-81
2022/11/24 08:28:34;;;;;;;10.90;2.47;;;9.00;99.90;;;;;;5001634;28;20174;-80
2022/11/24 08:31:05;;;;;;;9.97;2.37;;;9.10;99.90;;;;;;5020760;28;20606;-81
2022/11/24 08:33:32;;;;;;;9.60;2.83;;;9.10;99.90;;;;;;5029312;28;20177;-79
2022/11/24 08:36:06;;;;;;;8.70;2.73;;;9.10;99.90;;;;;;5034409;28;20166;-78
2022/11/24 08:38:32;;;;;;;13.33;2.73;;;9.10;99.90;;;;;;5033215;28;20193;-78
2022/11/24 08:41:10;;;;;;;11.27;2.90;;;9.20;99.90;;;;;;5001979;28;20628;-79
2022/11/24 08:43:39;;;;;;;13.93;2.93;;;9.20;99.90;;;;;;5018442;28;20634;-79
2022/11/24 08:46:16;;;;;;;8.87;2.77;;;9.40;99.90;;;;;;5016741;28;20570;-79
2022/11/24 08:48:42;;;;;;;8.17;2.63;;;9.40;99.90;;;;;;5016846;28;20166;-81
2022/11/24 08:51:13;;;;;;;11.43;2.80;;;9.40;99.90;;;;;;4997483;28;20584;-80
2022/11/24 08:53:40;;;;;;;11.37;2.50;;;9.40;99.90;;;;;;4998333;28;20695;-79
2022/11/24 08:56:07;;;;;;;8.53;3.10;;;9.50;99.90;;;;;;5017490;28;20193;-79
2022/11/24 08:58:34;;;;;;;8.73;3.23;;;9.50;99.90;;;;;;4999722;28;20224;-79
2022/11/24 09:01:18;;;;;;;12.03;3.53;;;9.80;99.90;;;;;;5017610;28;20206;-80
2022/11/24 09:03:47;;;;;;;11.50;3.00;;;9.70;99.90;;;;;;4999745;28;20647;-81
2022/11/24 09:06:16;;;;;;;9.07;2.57;;;9.70;99.90;;;;;;5005356;28;20170;-80
2022/11/24 09:08:41;;;;;;;12.77;2.83;;;9.80;99.90;;;;;;5003231;28;20204;-80
2022/11/24 09:11:12;;;;;;;8.87;2.67;;;9.90;99.30;;;;;;5004353;28;20190;-80
2022/11/24 09:13:39;;;;;;;13.93;3.33;;;9.90;98.80;;;;;;5020906;28;20174;-79
2022/11/24 09:16:09;;;;;;;10.30;2.83;;;9.90;99.70;;;;;;5037553;28;20200;-77
2022/11/24 09:18:35;;;;;;;11.77;3.00;;;9.90;99.70;;;;;;5036773;28;20170;-80
2022/11/24 09:21:11;;;;;;;12.43;2.90;;;10.00;99.80;;;;;;5024352;28;20202;-79
2022/11/24 09:23:38;;;;;;;10.53;2.50;;;10.00;99.80;;;;;;5022283;28;20190;-81
2022/11/24 09:26:24;;;;;;;11.00;3.00;;;10.20;99.40;;;;;;5022019;28;20673;-79
2022/11/24 09:28:53;;;;;;;9.47;2.73;;;10.20;98.30;;;;;;5022922;28;20169;-80
2022/11/24 09:31:20;;;;;;;14.07;4.60;;;10.20;97.80;;;;;;5024335;28;20186;-78
2022/11/24 09:33:48;;;;;;;8.40;2.70;;;10.20;98.00;;;;;;5009395;28;20258;-79
2022/11/24 09:36:24;;;;;;;14.17;2.80;;;10.30;97.50;;;;;;5010268;28;20180;-81
2022/11/24 09:38:52;;;;;;;11.70;3.23;;;10.40;96.20;;;;;;5028586;28;20220;-78
2022/11/24 09:41:32;;;;;;;13.40;3.27;;;10.50;96.30;;;;;;5026671;28;20712;-80
2022/11/24 09:44:46;;;;;;;9.10;3.20;;;10.50;95.30;;;;;;5024433;28;20181;-80
2022/11/24 09:47:31;;;;;;;9.70;2.77;;;10.50;95.50;;;;;;5016248;28;20178;-80
2022/11/24 09:50:00;;;;;;;11.33;3.30;;;10.50;95.40;;;;;;5022437;28;20166;-80
2022/11/24 09:52:44;;;;;;;12.70;3.93;;;10.60;95.50;;;;;;5024102;28;20185;-82
2022/11/24 09:55:42;;;;;;;7.23;2.47;;;10.70;94.80;;;;;;5023140;28;20575;-80
2022/11/24 09:58:49;;;;;;;11.73;3.37;;;10.80;93.40;;;;;;5005756;28;20170;-81
2022/11/24 10:01:27;;;;;;;13.47;3.10;;;10.90;93.10;;;;;;4980370;28;20218;-81
2022/11/24 10:03:59;;;;;;;10.80;2.83;;;10.90;91.80;;;;;;5021413;28;20541;-79
2022/11/24 10:06:33;;;;;;;9.90;2.97;;;10.90;92.20;;;;;;5021921;28;20194;-80
2022/11/24 10:09:39;;;;;;;13.10;3.50;;;10.90;92.50;;;;;;5023178;28;20174;-80
2022/11/24 10:12:48;;;;;;;11.43;3.00;;;11.00;91.50;;;;;;5003875;28;20175;-79
2022/11/24 10:15:28;;;;;;;10.23;2.80;;;11.10;91.20;;;;;;5027913;28;20185;-81
2022/11/24 10:18:21;;;;;;;12.93;3.30;;;11.00;90.50;;;;;;5024641;28;20171;-79
2022/11/24 10:21:27;;;;;;;10.27;3.13;;;11.10;90.40;;;;;;5016844;28;20206;-79
2022/11/24 10:24:26;;;;;;;12.40;3.23;;;11.10;91.10;;;;;;5008130;28;20196;-79
2022/11/24 10:27:09;;;;;;;13.97;2.83;;;11.30;90.50;;;;;;4998107;28;20187;-80
2022/11/24 10:29:42;;;;;;;13.87;3.07;;;11.40;86.20;;;;;;5000909;28;20174;-81
2022/11/24 10:32:18;;;;;;;11.73;3.60;;;11.50;85.80;;;;;;5000414;28;20222;-78
2022/11/24 10:34:48;;;;;;;13.40;3.03;;;11.70;84.20;;;;;;4982597;28;20210;-79
2022/11/24 10:37:14;;;;;;;13.93;3.33;;;11.70;83.20;;;;;;4981423;28;20174;-78
2022/11/24 10:39:49;;;;;;;15.93;3.33;;;11.70;78.60;;;;;;4998907;28;20187;-79
2022/11/24 10:42:35;;;;;;;15.13;3.80;;;11.80;78.40;;;;;;4981312;28;20210;-80
2022/11/24 10:45:14;;;;;;;9.57;2.97;;;11.70;79.10;;;;;;4999760;28;20514;-80
2022/11/24 10:47:40;;;;;;;11.50;3.33;;;11.70;77.90;;;;;;4982336;28;20193;-81
2022/11/24 10:50:20;;;;;;;14.63;4.10;;;11.80;79.60;;;;;;5002697;28;20655;-79
2022/11/24 10:53:04;;;;;;;12.80;4.03;;;11.70;78.80;;;;;;5001458;28;20182;-79
2022/11/24 10:56:04;;;;;;;9.27;3.50;;;11.60;81.40;;;;;;4993329;28;20205;-80
2022/11/24 10:58:36;;;;;;;14.00;2.87;;;11.70;82.60;;;;;;4996759;28;20178;-79
2022/11/24 11:01:28;;;;;;;13.07;4.87;;;11.70;79.40;;;;;;5001672;28;20195;-81
2022/11/24 11:03:57;;;;;;;15.80;3.70;;;11.70;79.30;;;;;;4982540;28;20188;-78
2022/11/24 11:06:28;;;;;;;12.47;3.70;;;11.90;76.90;;;;;;5000836;28;20190;-80
2022/11/24 11:09:06;;;;;;;14.77;3.70;;;12.00;73.50;;;;;;5003217;28;20206;-80
2022/11/24 11:11:40;;;;;;;10.33;2.87;;;12.00;72.50;;;;;;5005448;28;20182;-78
2022/11/24 11:14:09;;;;;;;12.80;3.60;;;12.00;72.80;;;;;;4994225;28;20201;-78
2022/11/24 11:16:51;;;;;;;16.97;3.87;;;12.10;73.80;;;;;;5008944;28;20188;-79
2022/11/24 11:19:45;;;;;;;15.47;3.53;;;12.10;71.20;;;;;;4988963;28;20171;-80
2022/11/24 11:22:25;;;;;;;11.20;2.97;;;12.10;69.90;;;;;;5002347;28;20205;-79
2022/11/24 11:25:04;;;;;;;12.67;3.00;;;12.00;70.10;;;;;;4998885;28;20167;-80
2022/11/24 11:27:30;;;;;;;12.17;3.30;;;12.00;67.30;;;;;;4997523;28;20193;-81
2022/11/24 11:30:18;;;;;;;10.67;3.20;;;12.10;68.00;;;;;;4999633;28;20190;-79
2022/11/24 11:33:01;;;;;;;19.83;4.07;;;12.10;66.10;;;;;;4997783;28;20176;-78
2022/11/24 11:35:30;;;;;;;17.73;3.97;;;12.20;67.80;;;;;;4980635;28;20232;-80
2022/11/24 11:38:01;;;;;;;13.63;2.80;;;12.30;62.60;;;;;;4997801;28;20167;-79
2022/11/24 11:40:29;;;;;;;11.83;3.10;;;12.40;63.30;;;;;;4980702;28;20214;-78
2022/11/24 11:43:12;;;;;;;14.60;3.20;;;12.40;59.80;;;;;;4998120;28;20214;-78
2022/11/24 11:45:43;;;;;;;13.27;3.07;;;12.40;58.70;;;;;;4998953;28;20181;-79
2022/11/24 11:48:20;;;;;;;15.73;3.47;;;12.50;59.20;;;;;;4982334;28;20180;-79
2022/11/24 11:51:30;;;;;;;17.67;3.70;;;12.60;58.60;;;;;;4998421;28;20635;-79
2022/11/24 11:54:11;;;;;;;14.83;3.73;;;12.70;57.20;;;;;;4963457;28;20187;-79
2022/11/24 11:56:43;;;;;;;12.37;3.40;;;12.80;57.20;;;;;;5001206;28;20674;-79
2022/11/24 11:59:17;;;;;;;12.33;3.67;;;12.80;57.40;;;;;;4983460;28;20194;-78
2022/11/24 12:02:05;;;;;;;14.27;3.90;;;12.70;57.10;;;;;;5000056;28;20211;-84
2022/11/24 12:05:25;;;;;;;12.53;3.57;;;12.70;54.50;;;;;;4984573;28;20204;-84
2022/11/24 12:08:12;;;;;;;20.30;4.23;;;12.60;56.10;;;;;;4922271;29;20177;-84
2022/11/24 12:10:52;;;;;;;11.93;3.27;;;12.70;58.70;;;;;;5001132;28;20226;-83
2022/11/24 12:13:40;;;;;;;16.07;3.60;;;12.60;59.10;;;;;;4983557;28;20610;-85
2022/11/24 12:16:44;;;;;;;15.80;3.40;;;12.60;60.70;;;;;;5000747;28;20692;-83
2022/11/24 12:19:38;;;;;;;15.13;3.17;;;12.50;59.60;;;;;;4980681;28;20288;-85
2022/11/24 12:22:45;;;;;;;11.80;3.20;;;12.40;59.70;;;;;;5003038;28;20218;-86
2022/11/24 12:25:22;;;;;;;14.27;3.70;;;12.40;62.70;;;;;;4983011;28;20181;-84
2022/11/24 12:28:22;;;;;;;16.13;3.70;;;12.30;64.20;;;;;;5000103;28;20194;-86
2022/11/24 12:31:28;;;;;;;16.80;3.17;;;12.30;66.20;;;;;;5004059;28;20201;-84
2022/11/24 12:33:54;;;;;;;13.33;3.30;;;12.30;65.60;;;;;;4987044;28;20170;-85
2022/11/24 12:36:36;;;;;;;10.20;2.67;;;12.30;63.80;;;;;;5002516;28;20262;-84
2022/11/24 12:39:49;;;;;;;12.67;3.47;;;12.40;62.10;;;;;;5000683;28;20238;-85
2022/11/24 12:42:44;;;;;;;9.30;3.77;;;12.40;62.80;;;;;;4987424;28;20287;-84
2022/11/24 12:45:14;;;;;;;11.57;2.87;;;12.60;60.40;;;;;;4998452;28;20198;-84
2022/11/24 12:48:11;;;;;;;13.07;3.37;;;12.60;58.10;;;;;;5000825;28;20168;-84
2022/11/24 12:50:39;;;;;;;11.87;3.47;;;12.70;57.50;;;;;;5000698;28;20266;-85
2022/11/24 12:53:31;;;;;;;15.00;3.57;;;12.70;55.70;;;;;;5001414;28;20197;-83
2022/11/24 12:56:08;;;;;;;13.07;4.03;;;12.70;54.50;;;;;;4996977;28;20194;-80
2022/11/24 12:59:01;;;;;;;13.73;4.00;;;12.70;55.30;;;;;;4997870;28;20260;-80
2022/11/24 13:01:45;;;;;;;14.50;3.83;;;12.70;54.10;;;;;;4997313;28;20190;-80
2022/11/24 13:04:29;;;;;;;9.23;3.40;;;12.90;54.80;;;;;;4996310;28;20258;-79
2022/11/24 13:07:02;;;;;;;10.67;3.83;;;12.90;52.50;;;;;;4998576;28;20197;-79
2022/11/24 13:09:27;;;;;;;9.63;3.20;;;13.00;51.10;;;;;;4997066;28;20175;-79